Terminal Aerodrome Forecast
Issued by NWS Spokane, WA

Home | Current Version | Previous Version | Text Only | Print | Product List | Glossary On
Versions: 1 2 3 4 5 6 7 8 9 10 11 12 13 14 15 16 17 18 19 20 21 22 23 24 25
000
FTUS46 KOTX 260001 AAA
TAFGEG
TAF AMD
KGEG 260001Z 2600/2624 25022G32KT P6SM VCSH FEW035 BKN120 BKN200
     FM260300 23019G27KT P6SM VCSH SCT015 BKN100
     FM260700 22014KT P6SM SCT120
     FM261500 21010KT P6SM SCT200
     FM261900 25007KT P6SM BKN250=

USA.gov is the U.S. government's official web portal to all federal, state and local government web resources and services.